Aérodrome :
LOGIN :

S'inscrire | Disclaimer

   EN    FR    IT 

 










Légende :    VFR   VFR Marginal   IFR   IFR Intensif   IFR Très Intensif
Visi : 
Plafond : 
>= 8 km
>= 3000ft
5 à 8 km
1000 à 3000 ft
1500m à 5 km
500 à 1000 ft
800 à 1500m
200 à 500 ft
< 800m
< 200 ft
Symboles :   Orages  Brouillard  Fortes neiges  Fortes précipitations  Vent > 20 kt
SIGMETs :   Divers  Orages  Givrage  Turbulence  Onde Orograph.  Cendres Volcan.







- Altitude de l'aérodrome : 614 ft
- Code IATA : CRL


EBCI - Charleroi

DERNIER METAR :
  • 161450Z 22007KT CAVOK 15/01 Q1025 NOSIG

METARs EXPIRÉS :
  • 161420Z 21007KT CAVOK 15/00 Q1026 NOSIG
  • 161350Z 22009KT 200V260 CAVOK 15/M00 Q1026 NOSIG
  • 161320Z 22010KT CAVOK 15/M00 Q1026 NOSIG
  • 161250Z 22011KT CAVOK 15/M00 Q1026 NOSIG
  • 161220Z 23011KT CAVOK 14/00 Q1026 NOSIG

TAF TAF EBCI
Valide du 16 à 12h jusqu'au 17 à 18h UTC


161120Z 1612/1718 21006KT CAVOK
Pas de NOTAMs connus pour ce terrain.



MET'MAP, la Météo Aéronautique d'un coup d'oeil ! - Copyright ORBIFLY Décembre 2007 - Disclaimer

ORBIFLY MET'MAP TEAM :

Programmation & Développement : Alexandra Zaïnal
Conception & Développement : Baudouin d'Aumeries
Co-Programmation & Développement : Marc-Olivier Méhu
Soutien technique & logistique : Manuel Goepfert

Contact : metmap@orbifly.com




SOURCES & CREDITS :

   NOAA